New Bloomington, Ohio
Current Conditions -  °F | °C
As of 3:53 AM on Monday 20 Oct 2014 (Local Time) from KMNN Reporting Station
Scattered Clouds Scattered Clouds  
Wind Chill:   Ceiling: Unl
Heat Index:   Visibility: 10mi
Dew Point:   Wind: 8mph
Humidity: 71%   Direction: 200°SSW
Pressure: 30"   Gusts: NA
Location:  40.58°N, 83.32°W
Report Text: KMNN 200753Z AUTO 20007KT 10SM SCT110 08/03 A3000 RMK AO2 SLP163 T00830033 TSNO
Loading
Personal Weather Stations






























Interactive Weather Map
Tropical Storm Tracking
New forecast layout! Learn more

10-Day Weather Forecast

Advertisements
Track Severe Weather on mobile